sensor_id;sensor_type;location;lat;lon;timestamp;P1;durP1;ratioP1;P2;durP2;ratioP2
72601;SDS011;60644;55.858;37.390;2022-12-07T00:01:38;5.43;;;0.90;;
72601;SDS011;60644;55.858;37.390;2022-12-07T00:04:06;3.88;;;0.68;;
72601;SDS011;60644;55.858;37.390;2022-12-07T00:06:35;4.75;;;0.90;;
72601;SDS011;60644;55.858;37.390;2022-12-07T00:09:03;5.23;;;1.17;;
72601;SDS011;60644;55.858;37.390;2022-12-07T00:11:31;4.40;;;1.17;;
72601;SDS011;60644;55.858;37.390;2022-12-07T00:13:58;4.13;;;0.50;;
72601;SDS011;60644;55.858;37.390;2022-12-07T00:16:26;4.50;;;0.60;;
72601;SDS011;60644;55.858;37.390;2022-12-07T00:18:54;5.25;;;0.93;;
72601;SDS011;60644;55.858;37.390;2022-12-07T00:21:21;5.00;;;0.70;;
72601;SDS011;60644;55.858;37.390;2022-12-07T00:23:49;3.92;;;0.52;;
72601;SDS011;60644;55.858;37.390;2022-12-07T00:26:17;2.85;;;0.50;;
72601;SDS011;60644;55.858;37.390;2022-12-07T00:28:48;4.10;;;0.93;;
72601;SDS011;60644;55.858;37.390;2022-12-07T00:31:16;2.67;;;0.60;;
72601;SDS011;60644;55.858;37.390;2022-12-07T00:33:44;4.93;;;0.83;;
72601;SDS011;60644;55.858;37.390;2022-12-07T00:36:11;2.78;;;0.68;;
72601;SDS011;60644;55.858;37.390;2022-12-07T00:38:39;3.40;;;0.60;;
72601;SDS011;60644;55.858;37.390;2022-12-07T00:41:06;5.28;;;0.90;;
72601;SDS011;60644;55.858;37.390;2022-12-07T00:43:36;5.45;;;0.57;;
72601;SDS011;60644;55.858;37.390;2022-12-07T00:46:02;4.90;;;0.70;;
72601;SDS011;60644;55.858;37.390;2022-12-07T00:48:28;5.53;;;1.00;;
72601;SDS011;60644;55.858;37.390;2022-12-07T00:50:55;4.13;;;0.50;;
72601;SDS011;60644;55.858;37.390;2022-12-07T00:53:21;4.07;;;0.77;;
72601;SDS011;60644;55.858;37.390;2022-12-07T00:55:47;7.38;;;1.00;;
72601;SDS011;60644;55.858;37.390;2022-12-07T00:58:14;5.60;;;0.77;;
72601;SDS011;60644;55.858;37.390;2022-12-07T01:00:40;5.13;;;1.35;;
72601;SDS011;60644;55.858;37.390;2022-12-07T01:03:08;4.82;;;0.68;;
72601;SDS011;60644;55.858;37.390;2022-12-07T01:05:35;7.25;;;0.90;;
72601;SDS011;60644;55.858;37.390;2022-12-07T01:08:01;4.78;;;0.65;;
72601;SDS011;60644;55.858;37.390;2022-12-07T01:10:27;5.63;;;1.33;;
72601;SDS011;60644;55.858;37.390;2022-12-07T01:12:55;5.65;;;1.13;;
72601;SDS011;60644;55.858;37.390;2022-12-07T01:15:21;2.95;;;0.82;;
72601;SDS011;60644;55.858;37.390;2022-12-07T01:17:47;8.48;;;1.02;;
72601;SDS011;60644;55.858;37.390;2022-12-07T01:20:13;5.95;;;1.17;;
72601;SDS011;60644;55.858;37.390;2022-12-07T01:22:41;6.95;;;1.70;;
72601;SDS011;60644;55.858;37.390;2022-12-07T01:25:09;5.25;;;1.10;;
72601;SDS011;60644;55.858;37.390;2022-12-07T01:27:36;8.13;;;1.83;;
72601;SDS011;60644;55.858;37.390;2022-12-07T01:30:03;5.50;;;0.80;;
72601;SDS011;60644;55.858;37.390;2022-12-07T01:32:31;5.50;;;1.35;;
72601;SDS011;60644;55.858;37.390;2022-12-07T01:34:57;7.32;;;1.60;;
72601;SDS011;60644;55.858;37.390;2022-12-07T01:37:23;3.90;;;0.70;;
72601;SDS011;60644;55.858;37.390;2022-12-07T01:39:49;5.78;;;1.10;;
72601;SDS011;60644;55.858;37.390;2022-12-07T01:42:17;5.32;;;1.17;;
72601;SDS011;60644;55.858;37.390;2022-12-07T01:47:46;5.70;;;0.90;;
72601;SDS011;60644;55.858;37.390;2022-12-07T01:50:15;4.28;;;1.00;;
72601;SDS011;60644;55.858;37.390;2022-12-07T01:52:42;7.30;;;1.75;;
72601;SDS011;60644;55.858;37.390;2022-12-07T01:55:10;5.05;;;1.70;;
72601;SDS011;60644;55.858;37.390;2022-12-07T01:57:43;7.72;;;1.40;;
72601;SDS011;60644;55.858;37.390;2022-12-07T02:00:13;7.40;;;1.07;;
72601;SDS011;60644;55.858;37.390;2022-12-07T02:02:47;6.68;;;1.38;;
72601;SDS011;60644;55.858;37.390;2022-12-07T02:05:18;6.43;;;0.80;;
72601;SDS011;60644;55.858;37.390;2022-12-07T02:07:45;2.42;;;0.65;;
72601;SDS011;60644;55.858;37.390;2022-12-07T02:10:20;6.47;;;1.17;;
72601;SDS011;60644;55.858;37.390;2022-12-07T02:12:49;9.57;;;1.57;;
72601;SDS011;60644;55.858;37.390;2022-12-07T02:21:38;3.55;;;0.70;;
72601;SDS011;60644;55.858;37.390;2022-12-07T02:37:56;5.93;;;1.17;;
72601;SDS011;60644;55.858;37.390;2022-12-07T02:40:55;6.68;;;1.30;;
72601;SDS011;60644;55.858;37.390;2022-12-07T02:43:28;5.28;;;0.95;;
72601;SDS011;60644;55.858;37.390;2022-12-07T02:46:02;7.70;;;1.33;;
72601;SDS011;60644;55.858;37.390;2022-12-07T02:48:33;6.10;;;1.67;;
72601;SDS011;60644;55.858;37.390;2022-12-07T02:51:01;5.18;;;1.40;;
72601;SDS011;60644;55.858;37.390;2022-12-07T03:07:51;5.00;;;1.00;;
72601;SDS011;60644;55.858;37.390;2022-12-07T03:19:18;7.90;;;1.30;;
72601;SDS011;60644;55.858;37.390;2022-12-07T03:21:47;6.43;;;1.17;;
72601;SDS011;60644;55.858;37.390;2022-12-07T03:24:19;6.72;;;1.77;;
72601;SDS011;60644;55.858;37.390;2022-12-07T03:26:52;6.20;;;1.33;;
72601;SDS011;60644;55.858;37.390;2022-12-07T03:29:25;5.40;;;1.40;;
72601;SDS011;60644;55.858;37.390;2022-12-07T03:32:05;8.98;;;1.45;;
72601;SDS011;60644;55.858;37.390;2022-12-07T03:34:41;7.88;;;1.92;;
72601;SDS011;60644;55.858;37.390;2022-12-07T03:39:49;7.63;;;1.90;;
72601;SDS011;60644;55.858;37.390;2022-12-07T03:42:19;11.68;;;1.98;;
72601;SDS011;60644;55.858;37.390;2022-12-07T03:44:45;5.25;;;1.23;;
72601;SDS011;60644;55.858;37.390;2022-12-07T03:47:14;6.57;;;1.45;;
72601;SDS011;60644;55.858;37.390;2022-12-07T03:49:56;5.53;;;1.00;;
72601;SDS011;60644;55.858;37.390;2022-12-07T03:55:28;4.65;;;0.90;;
72601;SDS011;60644;55.858;37.390;2022-12-07T03:58:01;4.75;;;1.20;;
72601;SDS011;60644;55.858;37.390;2022-12-07T04:00:29;7.25;;;1.25;;
72601;SDS011;60644;55.858;37.390;2022-12-07T04:02:56;6.73;;;1.27;;
72601;SDS011;60644;55.858;37.390;2022-12-07T04:05:22;7.65;;;1.65;;
72601;SDS011;60644;55.858;37.390;2022-12-07T04:07:48;10.40;;;1.65;;
72601;SDS011;60644;55.858;37.390;2022-12-07T04:10:14;5.53;;;1.08;;
72601;SDS011;60644;55.858;37.390;2022-12-07T04:12:40;7.57;;;1.23;;
72601;SDS011;60644;55.858;37.390;2022-12-07T04:15:06;10.45;;;1.70;;
72601;SDS011;60644;55.858;37.390;2022-12-07T04:17:32;5.32;;;1.88;;
72601;SDS011;60644;55.858;37.390;2022-12-07T04:19:58;5.68;;;1.20;;
72601;SDS011;60644;55.858;37.390;2022-12-07T04:22:24;5.27;;;1.30;;
72601;SDS011;60644;55.858;37.390;2022-12-07T04:24:50;7.15;;;1.15;;
72601;SDS011;60644;55.858;37.390;2022-12-07T04:27:16;4.77;;;1.07;;
72601;SDS011;60644;55.858;37.390;2022-12-07T04:29:42;5.78;;;1.60;;
72601;SDS011;60644;55.858;37.390;2022-12-07T04:32:08;5.05;;;1.30;;
72601;SDS011;60644;55.858;37.390;2022-12-07T04:34:33;6.50;;;1.77;;
72601;SDS011;60644;55.858;37.390;2022-12-07T04:36:59;6.03;;;0.88;;
72601;SDS011;60644;55.858;37.390;2022-12-07T04:39:29;7.10;;;1.30;;
72601;SDS011;60644;55.858;37.390;2022-12-07T04:41:58;8.30;;;1.73;;
72601;SDS011;60644;55.858;37.390;2022-12-07T04:44:26;4.63;;;1.02;;
72601;SDS011;60644;55.858;37.390;2022-12-07T04:46:53;4.47;;;1.10;;
72601;SDS011;60644;55.858;37.390;2022-12-07T04:49:20;3.45;;;0.80;;
72601;SDS011;60644;55.858;37.390;2022-12-07T04:51:46;5.20;;;1.60;;
72601;SDS011;60644;55.858;37.390;2022-12-07T04:54:13;5.55;;;0.70;;
72601;SDS011;60644;55.858;37.390;2022-12-07T04:56:40;5.28;;;1.05;;
72601;SDS011;60644;55.858;37.390;2022-12-07T04:59:06;3.58;;;1.00;;
72601;SDS011;60644;55.858;37.390;2022-12-07T05:01:33;7.43;;;1.20;;
72601;SDS011;60644;55.858;37.390;2022-12-07T05:03:59;5.10;;;0.97;;
72601;SDS011;60644;55.858;37.390;2022-12-07T05:06:25;5.63;;;1.13;;
72601;SDS011;60644;55.858;37.390;2022-12-07T05:08:51;6.05;;;1.13;;
72601;SDS011;60644;55.858;37.390;2022-12-07T05:11:17;5.78;;;1.30;;
72601;SDS011;60644;55.858;37.390;2022-12-07T05:14:02;7.53;;;1.20;;
72601;SDS011;60644;55.858;37.390;2022-12-07T05:16:29;4.70;;;1.00;;
72601;SDS011;60644;55.858;37.390;2022-12-07T05:18:55;5.75;;;1.00;;
72601;SDS011;60644;55.858;37.390;2022-12-07T05:21:21;10.32;;;1.48;;
72601;SDS011;60644;55.858;37.390;2022-12-07T05:23:47;7.07;;;1.17;;
72601;SDS011;60644;55.858;37.390;2022-12-07T05:26:13;5.82;;;1.30;;
72601;SDS011;60644;55.858;37.390;2022-12-07T05:28:38;6.97;;;1.30;;
72601;SDS011;60644;55.858;37.390;2022-12-07T05:31:05;7.20;;;0.90;;
72601;SDS011;60644;55.858;37.390;2022-12-07T05:33:31;5.60;;;1.10;;
72601;SDS011;60644;55.858;37.390;2022-12-07T05:35:57;5.85;;;1.30;;
72601;SDS011;60644;55.858;37.390;2022-12-07T05:38:23;9.33;;;1.40;;
72601;SDS011;60644;55.858;37.390;2022-12-07T05:40:50;6.05;;;1.50;;
72601;SDS011;60644;55.858;37.390;2022-12-07T05:43:16;7.13;;;1.20;;
72601;SDS011;60644;55.858;37.390;2022-12-07T05:45:42;9.15;;;1.45;;
72601;SDS011;60644;55.858;37.390;2022-12-07T05:48:07;7.78;;;1.75;;
72601;SDS011;60644;55.858;37.390;2022-12-07T05:50:33;5.90;;;1.27;;
72601;SDS011;60644;55.858;37.390;2022-12-07T05:52:59;5.10;;;0.95;;
72601;SDS011;60644;55.858;37.390;2022-12-07T05:55:25;8.45;;;1.23;;
72601;SDS011;60644;55.858;37.390;2022-12-07T05:57:51;5.67;;;1.27;;
72601;SDS011;60644;55.858;37.390;2022-12-07T06:00:55;8.00;;;1.65;;
72601;SDS011;60644;55.858;37.390;2022-12-07T06:03:21;5.90;;;1.27;;
72601;SDS011;60644;55.858;37.390;2022-12-07T06:05:47;5.73;;;1.30;;
72601;SDS011;60644;55.858;37.390;2022-12-07T06:08:13;9.38;;;1.58;;
72601;SDS011;60644;55.858;37.390;2022-12-07T06:10:40;3.47;;;0.70;;
72601;SDS011;60644;55.858;37.390;2022-12-07T06:13:07;5.68;;;1.60;;
72601;SDS011;60644;55.858;37.390;2022-12-07T06:15:37;6.03;;;1.60;;
72601;SDS011;60644;55.858;37.390;2022-12-07T06:18:03;5.43;;;1.17;;
72601;SDS011;60644;55.858;37.390;2022-12-07T06:20:31;5.18;;;0.95;;
72601;SDS011;60644;55.858;37.390;2022-12-07T06:22:57;7.30;;;1.73;;
72601;SDS011;60644;55.858;37.390;2022-12-07T06:25:23;12.07;;;2.10;;
72601;SDS011;60644;55.858;37.390;2022-12-07T06:27:49;5.95;;;1.45;;
72601;SDS011;60644;55.858;37.390;2022-12-07T06:30:15;6.03;;;1.30;;
72601;SDS011;60644;55.858;37.390;2022-12-07T06:32:41;6.68;;;1.20;;
72601;SDS011;60644;55.858;37.390;2022-12-07T06:35:06;6.07;;;0.95;;
72601;SDS011;60644;55.858;37.390;2022-12-07T06:37:32;5.20;;;1.20;;
72601;SDS011;60644;55.858;37.390;2022-12-07T06:39:58;8.05;;;1.92;;
72601;SDS011;60644;55.858;37.390;2022-12-07T06:42:24;6.22;;;1.38;;
72601;SDS011;60644;55.858;37.390;2022-12-07T06:44:50;6.83;;;1.97;;
72601;SDS011;60644;55.858;37.390;2022-12-07T06:47:16;6.28;;;1.80;;
72601;SDS011;60644;55.858;37.390;2022-12-07T06:49:42;6.87;;;1.50;;
72601;SDS011;60644;55.858;37.390;2022-12-07T06:52:07;7.78;;;1.65;;
72601;SDS011;60644;55.858;37.390;2022-12-07T06:54:33;7.10;;;1.50;;
72601;SDS011;60644;55.858;37.390;2022-12-07T06:56:59;5.83;;;1.53;;
72601;SDS011;60644;55.858;37.390;2022-12-07T06:59:25;4.93;;;1.52;;
72601;SDS011;60644;55.858;37.390;2022-12-07T07:01:51;5.80;;;1.10;;
72601;SDS011;60644;55.858;37.390;2022-12-07T07:04:17;7.57;;;2.08;;
72601;SDS011;60644;55.858;37.390;2022-12-07T07:06:43;10.18;;;1.85;;
72601;SDS011;60644;55.858;37.390;2022-12-07T07:09:09;8.80;;;1.77;;
72601;SDS011;60644;55.858;37.390;2022-12-07T07:11:35;3.03;;;0.60;;
72601;SDS011;60644;55.858;37.390;2022-12-07T07:14:00;6.00;;;1.70;;
72601;SDS011;60644;55.858;37.390;2022-12-07T07:16:28;4.53;;;1.17;;
72601;SDS011;60644;55.858;37.390;2022-12-07T07:18:56;5.75;;;1.27;;
72601;SDS011;60644;55.858;37.390;2022-12-07T07:21:22;8.50;;;1.98;;
72601;SDS011;60644;55.858;37.390;2022-12-07T07:23:48;12.13;;;2.30;;
72601;SDS011;60644;55.858;37.390;2022-12-07T07:26:14;6.53;;;1.33;;
72601;SDS011;60644;55.858;37.390;2022-12-07T07:28:40;7.90;;;1.50;;
72601;SDS011;60644;55.858;37.390;2022-12-07T07:31:05;5.60;;;1.80;;
72601;SDS011;60644;55.858;37.390;2022-12-07T07:33:31;7.07;;;1.73;;
72601;SDS011;60644;55.858;37.390;2022-12-07T07:35:57;8.82;;;2.60;;
72601;SDS011;60644;55.858;37.390;2022-12-07T07:38:23;7.03;;;1.60;;
72601;SDS011;60644;55.858;37.390;2022-12-07T07:40:49;7.40;;;1.80;;
72601;SDS011;60644;55.858;37.390;2022-12-07T07:43:15;6.60;;;1.77;;
72601;SDS011;60644;55.858;37.390;2022-12-07T07:45:40;6.07;;;1.70;;
72601;SDS011;60644;55.858;37.390;2022-12-07T07:48:06;7.97;;;1.97;;
72601;SDS011;60644;55.858;37.390;2022-12-07T07:50:32;7.47;;;1.73;;
72601;SDS011;60644;55.858;37.390;2022-12-07T07:52:58;8.02;;;1.52;;
72601;SDS011;60644;55.858;37.390;2022-12-07T07:55:24;8.57;;;2.27;;
72601;SDS011;60644;55.858;37.390;2022-12-07T07:57:50;9.20;;;2.03;;
72601;SDS011;60644;55.858;37.390;2022-12-07T08:00:16;5.67;;;1.37;;
72601;SDS011;60644;55.858;37.390;2022-12-07T08:02:42;5.25;;;1.45;;
72601;SDS011;60644;55.858;37.390;2022-12-07T08:05:09;4.47;;;1.33;;
72601;SDS011;60644;55.858;37.390;2022-12-07T08:07:36;9.45;;;2.05;;
72601;SDS011;60644;55.858;37.390;2022-12-07T08:10:02;11.83;;;2.13;;
72601;SDS011;60644;55.858;37.390;2022-12-07T08:12:29;6.82;;;2.00;;
72601;SDS011;60644;55.858;37.390;2022-12-07T08:14:55;6.38;;;1.63;;
72601;SDS011;60644;55.858;37.390;2022-12-07T08:17:21;7.67;;;1.87;;
72601;SDS011;60644;55.858;37.390;2022-12-07T08:19:47;9.45;;;1.60;;
72601;SDS011;60644;55.858;37.390;2022-12-07T08:22:12;15.17;;;1.73;;
72601;SDS011;60644;55.858;37.390;2022-12-07T08:24:38;8.90;;;2.42;;
72601;SDS011;60644;55.858;37.390;2022-12-07T08:27:04;8.77;;;1.67;;
72601;SDS011;60644;55.858;37.390;2022-12-07T08:29:30;9.55;;;2.17;;
72601;SDS011;60644;55.858;37.390;2022-12-07T08:31:56;6.82;;;1.83;;
72601;SDS011;60644;55.858;37.390;2022-12-07T08:34:22;10.70;;;1.70;;
72601;SDS011;60644;55.858;37.390;2022-12-07T08:36:47;6.95;;;1.70;;
72601;SDS011;60644;55.858;37.390;2022-12-07T08:39:13;6.87;;;1.97;;
72601;SDS011;60644;55.858;37.390;2022-12-07T08:41:39;7.57;;;1.80;;
72601;SDS011;60644;55.858;37.390;2022-12-07T08:44:05;9.00;;;1.63;;
72601;SDS011;60644;55.858;37.390;2022-12-07T08:46:35;9.50;;;2.80;;
72601;SDS011;60644;55.858;37.390;2022-12-07T08:49:11;10.43;;;2.30;;
72601;SDS011;60644;55.858;37.390;2022-12-07T08:51:40;8.70;;;2.28;;
72601;SDS011;60644;55.858;37.390;2022-12-07T08:54:07;9.80;;;2.53;;
72601;SDS011;60644;55.858;37.390;2022-12-07T08:56:36;5.60;;;1.70;;
72601;SDS011;60644;55.858;37.390;2022-12-07T08:59:02;9.43;;;2.95;;
72601;SDS011;60644;55.858;37.390;2022-12-07T09:01:29;11.40;;;3.10;;
72601;SDS011;60644;55.858;37.390;2022-12-07T09:03:55;9.27;;;2.78;;
72601;SDS011;60644;55.858;37.390;2022-12-07T09:06:21;8.53;;;1.70;;
72601;SDS011;60644;55.858;37.390;2022-12-07T09:08:48;9.10;;;2.35;;
72601;SDS011;60644;55.858;37.390;2022-12-07T09:11:16;11.02;;;2.78;;
72601;SDS011;60644;55.858;37.390;2022-12-07T09:13:42;7.70;;;2.33;;
72601;SDS011;60644;55.858;37.390;2022-12-07T09:16:08;7.95;;;1.73;;
72601;SDS011;60644;55.858;37.390;2022-12-07T09:18:34;6.95;;;1.55;;
72601;SDS011;60644;55.858;37.390;2022-12-07T09:21:00;10.90;;;3.60;;
72601;SDS011;60644;55.858;37.390;2022-12-07T09:23:26;6.95;;;1.95;;
72601;SDS011;60644;55.858;37.390;2022-12-07T09:25:51;8.40;;;2.38;;
72601;SDS011;60644;55.858;37.390;2022-12-07T09:28:17;9.07;;;2.40;;
72601;SDS011;60644;55.858;37.390;2022-12-07T09:30:46;11.63;;;3.25;;
72601;SDS011;60644;55.858;37.390;2022-12-07T09:33:13;9.80;;;2.63;;
72601;SDS011;60644;55.858;37.390;2022-12-07T09:35:46;7.93;;;2.47;;
72601;SDS011;60644;55.858;37.390;2022-12-07T09:38:13;6.00;;;1.77;;
72601;SDS011;60644;55.858;37.390;2022-12-07T09:40:39;7.70;;;2.15;;
72601;SDS011;60644;55.858;37.390;2022-12-07T09:43:11;8.30;;;2.13;;
72601;SDS011;60644;55.858;37.390;2022-12-07T09:45:48;8.87;;;2.30;;
72601;SDS011;60644;55.858;37.390;2022-12-07T09:48:20;5.25;;;1.23;;
72601;SDS011;60644;55.858;37.390;2022-12-07T09:50:51;7.53;;;2.55;;
72601;SDS011;60644;55.858;37.390;2022-12-07T09:53:24;7.88;;;1.55;;
72601;SDS011;60644;55.858;37.390;2022-12-07T09:55:53;9.80;;;2.20;;
72601;SDS011;60644;55.858;37.390;2022-12-07T09:58:20;12.47;;;2.13;;
72601;SDS011;60644;55.858;37.390;2022-12-07T10:00:53;11.75;;;2.78;;
72601;SDS011;60644;55.858;37.390;2022-12-07T10:03:22;11.15;;;2.10;;
72601;SDS011;60644;55.858;37.390;2022-12-07T10:05:49;8.65;;;2.30;;
72601;SDS011;60644;55.858;37.390;2022-12-07T10:08:16;8.30;;;2.25;;
72601;SDS011;60644;55.858;37.390;2022-12-07T10:10:43;7.43;;;1.57;;
72601;SDS011;60644;55.858;37.390;2022-12-07T10:18:32;10.27;;;2.38;;
72601;SDS011;60644;55.858;37.390;2022-12-07T10:23:42;9.75;;;1.98;;
72601;SDS011;60644;55.858;37.390;2022-12-07T10:26:35;7.60;;;2.40;;
72601;SDS011;60644;55.858;37.390;2022-12-07T10:29:17;8.82;;;2.58;;
72601;SDS011;60644;55.858;37.390;2022-12-07T10:31:54;6.95;;;2.10;;
72601;SDS011;60644;55.858;37.390;2022-12-07T10:34:24;8.93;;;2.20;;
72601;SDS011;60644;55.858;37.390;2022-12-07T10:36:54;7.20;;;1.65;;
72601;SDS011;60644;55.858;37.390;2022-12-07T10:39:54;11.50;;;2.53;;
72601;SDS011;60644;55.858;37.390;2022-12-07T10:44:50;4.88;;;0.73;;
72601;SDS011;60644;55.858;37.390;2022-12-07T10:47:51;5.90;;;1.50;;
72601;SDS011;60644;55.858;37.390;2022-12-07T10:50:47;8.05;;;1.98;;
72601;SDS011;60644;55.858;37.390;2022-12-07T11:02:00;10.77;;;2.67;;
72601;SDS011;60644;55.858;37.390;2022-12-07T11:04:53;16.13;;;2.17;;
72601;SDS011;60644;55.858;37.390;2022-12-07T11:19:20;8.57;;;2.38;;
72601;SDS011;60644;55.858;37.390;2022-12-07T11:30:00;6.70;;;2.40;;
72601;SDS011;60644;55.858;37.390;2022-12-07T11:40:42;8.52;;;2.17;;
72601;SDS011;60644;55.858;37.390;2022-12-07T11:45:58;6.93;;;1.98;;
72601;SDS011;60644;55.858;37.390;2022-12-07T11:48:35;9.82;;;3.25;;
72601;SDS011;60644;55.858;37.390;2022-12-07T11:51:04;10.52;;;2.92;;
72601;SDS011;60644;55.858;37.390;2022-12-07T11:53:34;9.65;;;2.40;;
72601;SDS011;60644;55.858;37.390;2022-12-07T11:56:12;12.17;;;3.00;;
72601;SDS011;60644;55.858;37.390;2022-12-07T12:01:55;13.80;;;3.65;;
72601;SDS011;60644;55.858;37.390;2022-12-07T12:04:29;11.02;;;2.75;;
72601;SDS011;60644;55.858;37.390;2022-12-07T12:07:05;6.85;;;2.05;;
72601;SDS011;60644;55.858;37.390;2022-12-07T12:09:33;10.17;;;3.03;;
72601;SDS011;60644;55.858;37.390;2022-12-07T12:14:59;10.95;;;3.25;;
72601;SDS011;60644;55.858;37.390;2022-12-07T12:23:17;9.83;;;2.60;;
72601;SDS011;60644;55.858;37.390;2022-12-07T12:25:48;12.35;;;3.50;;
72601;SDS011;60644;55.858;37.390;2022-12-07T12:28:32;12.15;;;3.17;;
72601;SDS011;60644;55.858;37.390;2022-12-07T12:34:00;9.85;;;3.05;;
72601;SDS011;60644;55.858;37.390;2022-12-07T12:46:53;11.73;;;3.50;;
72601;SDS011;60644;55.858;37.390;2022-12-07T12:51:55;9.67;;;3.30;;
72601;SDS011;60644;55.858;37.390;2022-12-07T12:54:24;13.35;;;3.42;;
72601;SDS011;60644;55.858;37.390;2022-12-07T12:57:09;12.07;;;3.50;;
72601;SDS011;60644;55.858;37.390;2022-12-07T12:59:41;9.60;;;2.47;;
72601;SDS011;60644;55.858;37.390;2022-12-07T13:02:25;12.15;;;2.85;;
72601;SDS011;60644;55.858;37.390;2022-12-07T13:12:58;9.15;;;3.10;;
72601;SDS011;60644;55.858;37.390;2022-12-07T13:15:40;8.95;;;2.95;;
72601;SDS011;60644;55.858;37.390;2022-12-07T13:18:41;5.23;;;1.57;;
72601;SDS011;60644;55.858;37.390;2022-12-07T13:23:38;11.35;;;3.33;;
72601;SDS011;60644;55.858;37.390;2022-12-07T13:26:20;8.75;;;2.50;;
72601;SDS011;60644;55.858;37.390;2022-12-07T13:28:49;9.80;;;2.97;;
72601;SDS011;60644;55.858;37.390;2022-12-07T13:33:57;11.13;;;3.47;;
72601;SDS011;60644;55.858;37.390;2022-12-07T13:36:24;9.25;;;3.30;;
72601;SDS011;60644;55.858;37.390;2022-12-07T13:38:57;8.93;;;2.70;;
72601;SDS011;60644;55.858;37.390;2022-12-07T13:41:25;10.18;;;3.35;;
72601;SDS011;60644;55.858;37.390;2022-12-07T13:43:55;10.47;;;3.23;;
72601;SDS011;60644;55.858;37.390;2022-12-07T13:46:49;9.23;;;2.83;;
72601;SDS011;60644;55.858;37.390;2022-12-07T13:49:15;14.63;;;4.32;;
72601;SDS011;60644;55.858;37.390;2022-12-07T13:51:44;12.50;;;3.35;;
72601;SDS011;60644;55.858;37.390;2022-12-07T13:54:11;12.13;;;4.00;;
72601;SDS011;60644;55.858;37.390;2022-12-07T13:56:37;9.73;;;2.87;;
72601;SDS011;60644;55.858;37.390;2022-12-07T13:59:05;11.65;;;3.53;;
72601;SDS011;60644;55.858;37.390;2022-12-07T14:01:39;12.65;;;3.22;;
72601;SDS011;60644;55.858;37.390;2022-12-07T14:07:01;11.67;;;3.90;;
72601;SDS011;60644;55.858;37.390;2022-12-07T14:09:53;11.30;;;4.03;;
72601;SDS011;60644;55.858;37.390;2022-12-07T14:12:30;10.18;;;3.13;;
72601;SDS011;60644;55.858;37.390;2022-12-07T14:14:59;12.68;;;4.63;;
72601;SDS011;60644;55.858;37.390;2022-12-07T14:17:29;12.10;;;3.08;;
72601;SDS011;60644;55.858;37.390;2022-12-07T14:19:56;9.37;;;3.10;;
72601;SDS011;60644;55.858;37.390;2022-12-07T14:22:27;12.02;;;3.88;;
72601;SDS011;60644;55.858;37.390;2022-12-07T14:27:38;8.02;;;2.50;;
72601;SDS011;60644;55.858;37.390;2022-12-07T14:30:14;12.02;;;2.80;;
72601;SDS011;60644;55.858;37.390;2022-12-07T14:32:42;10.00;;;3.90;;
72601;SDS011;60644;55.858;37.390;2022-12-07T14:35:14;12.75;;;3.28;;
72601;SDS011;60644;55.858;37.390;2022-12-07T14:37:43;13.77;;;3.28;;
72601;SDS011;60644;55.858;37.390;2022-12-07T14:40:16;12.02;;;3.38;;
72601;SDS011;60644;55.858;37.390;2022-12-07T14:42:44;11.02;;;3.47;;
72601;SDS011;60644;55.858;37.390;2022-12-07T14:45:13;9.13;;;2.63;;
72601;SDS011;60644;55.858;37.390;2022-12-07T14:47:42;9.48;;;2.75;;
72601;SDS011;60644;55.858;37.390;2022-12-07T14:50:11;14.57;;;3.63;;
72601;SDS011;60644;55.858;37.390;2022-12-07T14:52:38;11.07;;;3.65;;
72601;SDS011;60644;55.858;37.390;2022-12-07T14:55:07;10.80;;;3.45;;
72601;SDS011;60644;55.858;37.390;2022-12-07T14:57:39;8.27;;;2.93;;
72601;SDS011;60644;55.858;37.390;2022-12-07T15:00:05;11.43;;;3.80;;
72601;SDS011;60644;55.858;37.390;2022-12-07T15:02:31;11.57;;;3.53;;
72601;SDS011;60644;55.858;37.390;2022-12-07T15:04:57;8.77;;;2.80;;
72601;SDS011;60644;55.858;37.390;2022-12-07T15:07:23;11.15;;;2.25;;
72601;SDS011;60644;55.858;37.390;2022-12-07T15:09:50;9.10;;;2.90;;
72601;SDS011;60644;55.858;37.390;2022-12-07T15:12:16;11.27;;;3.87;;
72601;SDS011;60644;55.858;37.390;2022-12-07T15:14:41;10.52;;;2.92;;
72601;SDS011;60644;55.858;37.390;2022-12-07T15:17:09;11.32;;;3.75;;
72601;SDS011;60644;55.858;37.390;2022-12-07T15:19:37;11.18;;;3.22;;
72601;SDS011;60644;55.858;37.390;2022-12-07T15:22:03;13.48;;;3.80;;
72601;SDS011;60644;55.858;37.390;2022-12-07T15:24:29;13.43;;;3.85;;
72601;SDS011;60644;55.858;37.390;2022-12-07T15:26:55;11.87;;;3.77;;
72601;SDS011;60644;55.858;37.390;2022-12-07T15:29:21;10.50;;;3.70;;
72601;SDS011;60644;55.858;37.390;2022-12-07T15:31:48;6.88;;;2.13;;
72601;SDS011;60644;55.858;37.390;2022-12-07T15:34:14;13.53;;;4.43;;
72601;SDS011;60644;55.858;37.390;2022-12-07T15:36:40;10.48;;;2.90;;
72601;SDS011;60644;55.858;37.390;2022-12-07T15:39:06;11.18;;;3.40;;
72601;SDS011;60644;55.858;37.390;2022-12-07T15:41:33;9.87;;;3.03;;
72601;SDS011;60644;55.858;37.390;2022-12-07T15:44:00;11.07;;;3.17;;
72601;SDS011;60644;55.858;37.390;2022-12-07T15:46:45;9.43;;;3.30;;
72601;SDS011;60644;55.858;37.390;2022-12-07T15:49:12;10.38;;;2.95;;
72601;SDS011;60644;55.858;37.390;2022-12-07T15:51:39;12.37;;;3.77;;
72601;SDS011;60644;55.858;37.390;2022-12-07T15:54:06;11.40;;;4.22;;
72601;SDS011;60644;55.858;37.390;2022-12-07T15:56:34;11.32;;;3.92;;
72601;SDS011;60644;55.858;37.390;2022-12-07T15:58:59;8.55;;;2.63;;
72601;SDS011;60644;55.858;37.390;2022-12-07T16:01:25;10.13;;;2.50;;
72601;SDS011;60644;55.858;37.390;2022-12-07T16:03:51;12.50;;;2.95;;
72601;SDS011;60644;55.858;37.390;2022-12-07T16:06:17;9.63;;;2.67;;
72601;SDS011;60644;55.858;37.390;2022-12-07T16:08:44;12.13;;;3.92;;
72601;SDS011;60644;55.858;37.390;2022-12-07T16:11:11;14.55;;;4.10;;
72601;SDS011;60644;55.858;37.390;2022-12-07T16:13:37;9.23;;;3.13;;
72601;SDS011;60644;55.858;37.390;2022-12-07T16:16:05;11.65;;;3.13;;
72601;SDS011;60644;55.858;37.390;2022-12-07T16:18:32;14.25;;;3.25;;
72601;SDS011;60644;55.858;37.390;2022-12-07T16:20:59;10.77;;;3.15;;
72601;SDS011;60644;55.858;37.390;2022-12-07T16:23:25;10.93;;;2.97;;
72601;SDS011;60644;55.858;37.390;2022-12-07T16:25:51;7.75;;;2.22;;
72601;SDS011;60644;55.858;37.390;2022-12-07T16:28:17;9.63;;;2.75;;
72601;SDS011;60644;55.858;37.390;2022-12-07T16:30:43;12.15;;;3.53;;
72601;SDS011;60644;55.858;37.390;2022-12-07T16:33:10;11.20;;;3.97;;
72601;SDS011;60644;55.858;37.390;2022-12-07T16:35:39;10.85;;;3.45;;
72601;SDS011;60644;55.858;37.390;2022-12-07T16:38:06;13.80;;;2.40;;
72601;SDS011;60644;55.858;37.390;2022-12-07T16:40:32;7.20;;;2.15;;
72601;SDS011;60644;55.858;37.390;2022-12-07T16:42:58;10.67;;;3.27;;
72601;SDS011;60644;55.858;37.390;2022-12-07T16:45:24;8.98;;;3.25;;
72601;SDS011;60644;55.858;37.390;2022-12-07T16:47:49;8.00;;;2.90;;
72601;SDS011;60644;55.858;37.390;2022-12-07T16:50:15;10.38;;;3.40;;
72601;SDS011;60644;55.858;37.390;2022-12-07T16:52:41;11.15;;;3.78;;
72601;SDS011;60644;55.858;37.390;2022-12-07T16:55:08;10.53;;;2.60;;
72601;SDS011;60644;55.858;37.390;2022-12-07T16:57:34;14.63;;;4.00;;
72601;SDS011;60644;55.858;37.390;2022-12-07T16:59:59;10.68;;;3.28;;
72601;SDS011;60644;55.858;37.390;2022-12-07T17:02:25;12.13;;;3.47;;
72601;SDS011;60644;55.858;37.390;2022-12-07T17:04:51;17.58;;;4.43;;
72601;SDS011;60644;55.858;37.390;2022-12-07T17:07:17;7.65;;;2.38;;
72601;SDS011;60644;55.858;37.390;2022-12-07T17:09:43;13.30;;;3.93;;